createdAt,value
2018-03-23T00:00:55.651Z,21.70
2018-03-23T00:01:55.514Z,20.50
2018-03-23T00:02:55.380Z,20.10
2018-03-23T00:03:55.244Z,20.50
2018-03-23T00:04:55.110Z,18.60
2018-03-23T00:05:54.974Z,20.40
2018-03-23T00:06:54.849Z,19.30
2018-03-23T00:07:54.706Z,19.30
2018-03-23T00:08:54.572Z,19.90
2018-03-23T00:09:54.435Z,22.70
2018-03-23T00:10:54.300Z,21.60
2018-03-23T00:11:54.167Z,20.40
2018-03-23T00:12:54.034Z,20.70
2018-03-23T00:13:53.897Z,21.70
2018-03-23T00:14:53.763Z,21.50
2018-03-23T00:15:53.627Z,21.10
2018-03-23T00:16:53.496Z,21.60
2018-03-23T00:17:53.358Z,21.30
2018-03-23T00:18:53.226Z,22.10
2018-03-23T00:19:53.090Z,21.10
2018-03-23T00:20:52.958Z,21.00
2018-03-23T00:21:52.819Z,20.90
2018-03-23T00:22:52.684Z,21.20
2018-03-23T00:23:52.550Z,22.00
2018-03-23T00:24:52.414Z,30.90
2018-03-23T00:25:52.280Z,23.10
2018-03-23T00:26:52.146Z,22.70
2018-03-23T00:27:52.011Z,21.80
2018-03-23T00:28:51.876Z,23.80
2018-03-23T00:29:51.741Z,24.70
2018-03-23T00:30:51.606Z,23.50
2018-03-23T00:31:51.472Z,23.50
2018-03-23T00:32:51.338Z,23.50
2018-03-23T00:33:51.202Z,22.70
2018-03-23T00:34:51.067Z,23.20
2018-03-23T00:35:50.933Z,22.90
2018-03-23T00:36:50.798Z,22.30
2018-03-23T00:37:50.662Z,24.40
2018-03-23T00:38:50.530Z,22.40
2018-03-23T00:39:50.394Z,21.70
2018-03-23T00:40:50.259Z,23.00
2018-03-23T00:41:50.125Z,21.50
2018-03-23T00:42:50.001Z,21.70
2018-03-23T00:43:49.854Z,21.20
2018-03-23T00:44:49.719Z,22.40
2018-03-23T00:45:49.587Z,45.40
2018-03-23T00:46:49.451Z,136.80
2018-03-23T00:47:49.315Z,28.10
2018-03-23T00:48:49.182Z,29.60
2018-03-23T00:49:49.044Z,28.10
2018-03-23T00:50:48.925Z,23.90
2018-03-23T00:51:48.773Z,24.60
2018-03-23T00:52:48.642Z,61.20
2018-03-23T00:53:48.506Z,43.70
2018-03-23T00:54:48.372Z,27.90
2018-03-23T00:55:48.233Z,26.10
2018-03-23T00:56:48.103Z,25.70
2018-03-23T00:57:47.966Z,24.30
2018-03-23T00:58:47.836Z,25.20
2018-03-23T00:59:47.699Z,71.50
2018-03-23T01:00:47.563Z,51.90
2018-03-23T01:01:47.428Z,44.50
2018-03-23T01:02:47.292Z,40.20
2018-03-23T01:03:47.157Z,32.20
2018-03-23T01:04:47.021Z,32.80
2018-03-23T01:05:46.886Z,26.80
2018-03-23T01:06:46.758Z,28.30
2018-03-23T01:07:46.617Z,29.70
2018-03-23T01:08:46.483Z,28.40
2018-03-23T01:09:46.348Z,27.20
2018-03-23T01:10:46.212Z,27.10
2018-03-23T01:11:46.080Z,29.60
2018-03-23T01:12:45.947Z,25.70
2018-03-23T01:13:45.812Z,29.00
2018-03-23T01:14:45.676Z,27.00
2018-03-23T01:15:45.541Z,28.00
2018-03-23T01:16:45.403Z,26.00
2018-03-23T01:17:45.267Z,27.90
2018-03-23T01:18:45.136Z,22.90
2018-03-23T01:19:44.997Z,26.60
2018-03-23T01:20:44.866Z,25.70
2018-03-23T01:21:44.739Z,24.80
2018-03-23T01:22:44.593Z,24.20
2018-03-23T01:23:44.459Z,29.10
2018-03-23T01:24:44.334Z,48.70
2018-03-23T01:25:44.189Z,25.90
2018-03-23T01:26:44.054Z,28.80
2018-03-23T01:27:43.919Z,28.60
2018-03-23T01:28:43.786Z,28.60
2018-03-23T01:29:43.655Z,26.20
2018-03-23T01:30:43.515Z,27.00
2018-03-23T01:31:43.380Z,25.80
2018-03-23T01:32:43.246Z,25.00
2018-03-23T01:33:43.111Z,27.80
2018-03-23T01:34:42.974Z,26.60
2018-03-23T01:35:42.841Z,27.00
2018-03-23T01:36:42.707Z,26.10
2018-03-23T01:37:42.571Z,25.30
2018-03-23T01:38:42.437Z,27.60
2018-03-23T01:39:42.307Z,30.40
2018-03-23T01:40:42.164Z,26.40
2018-03-23T01:41:42.030Z,27.20
2018-03-23T01:42:41.895Z,24.80
2018-03-23T01:43:41.763Z,25.20
2018-03-23T01:44:41.626Z,26.20
2018-03-23T01:45:41.490Z,25.80
2018-03-23T01:46:41.358Z,26.60
2018-03-23T01:47:41.223Z,28.60
2018-03-23T01:48:41.085Z,28.10
2018-03-23T01:49:40.950Z,29.50
2018-03-23T01:50:40.814Z,25.90
2018-03-23T01:51:40.682Z,27.00
2018-03-23T01:52:40.553Z,31.50
2018-03-23T01:53:40.409Z,29.60
2018-03-23T01:54:40.276Z,24.30
2018-03-23T01:55:40.146Z,22.80
2018-03-23T01:56:40.008Z,23.70
2018-03-23T01:57:39.907Z,24.60
2018-03-23T01:58:39.738Z,23.50
2018-03-23T01:59:39.605Z,24.20
2018-03-23T02:00:39.469Z,24.50
2018-03-23T02:01:39.333Z,25.60
2018-03-23T02:02:39.196Z,26.40
2018-03-23T02:03:39.065Z,23.80
2018-03-23T02:04:38.928Z,22.00
2018-03-23T02:05:38.794Z,21.90
2018-03-23T02:06:38.659Z,22.20
2018-03-23T02:07:38.526Z,22.30
2018-03-23T02:08:38.389Z,21.50
2018-03-23T02:09:38.253Z,20.30
2018-03-23T02:10:38.119Z,21.70
2018-03-23T02:11:37.984Z,20.50
2018-03-23T02:12:37.850Z,19.90
2018-03-23T02:13:37.716Z,20.20
2018-03-23T02:14:37.583Z,18.90
2018-03-23T02:15:37.448Z,19.30
2018-03-23T02:16:37.312Z,19.60
2018-03-23T02:17:37.177Z,21.00
2018-03-23T02:18:37.044Z,21.50
2018-03-23T02:19:36.909Z,20.30
2018-03-23T02:20:36.775Z,19.80
2018-03-23T02:21:36.651Z,20.30
2018-03-23T02:22:36.506Z,19.80
2018-03-23T02:23:36.370Z,21.90
2018-03-23T02:24:36.235Z,20.60
2018-03-23T02:25:36.100Z,20.10
2018-03-23T02:26:35.968Z,19.40
2018-03-23T02:27:35.834Z,20.70
2018-03-23T02:28:35.700Z,19.30
2018-03-23T02:29:35.568Z,19.50
2018-03-23T02:30:35.432Z,20.90
2018-03-23T02:31:35.298Z,20.30
2018-03-23T02:32:35.163Z,20.60
2018-03-23T02:33:35.029Z,21.00
2018-03-23T02:34:34.892Z,22.80
2018-03-23T02:35:34.758Z,25.20
2018-03-23T02:36:34.622Z,24.30
2018-03-23T02:37:34.487Z,24.20
2018-03-23T02:38:34.354Z,24.80
2018-03-23T02:39:34.222Z,25.00
2018-03-23T02:40:34.087Z,26.10
2018-03-23T02:41:33.951Z,23.40
2018-03-23T02:42:33.818Z,26.00
2018-03-23T02:43:33.681Z,27.20
2018-03-23T02:44:33.545Z,27.20
2018-03-23T02:45:33.411Z,29.00
2018-03-23T02:46:33.273Z,27.10
2018-03-23T02:47:33.144Z,26.70
2018-03-23T02:48:33.007Z,26.70
2018-03-23T02:49:32.873Z,25.60
2018-03-23T02:50:32.737Z,22.80
2018-03-23T02:51:32.601Z,23.30
2018-03-23T02:52:32.470Z,23.80
2018-03-23T02:53:32.340Z,23.10
2018-03-23T02:54:32.211Z,22.20
2018-03-23T02:55:32.062Z,23.40
2018-03-23T02:56:31.929Z,21.30
2018-03-23T02:57:31.792Z,22.90
2018-03-23T02:58:31.658Z,23.00
2018-03-23T02:59:31.525Z,23.50
2018-03-23T03:00:31.389Z,25.30
2018-03-23T03:01:31.255Z,26.90
2018-03-23T03:02:31.121Z,27.10
2018-03-23T03:03:30.992Z,28.40
2018-03-23T03:04:30.850Z,100.90
2018-03-23T03:05:30.712Z,63.40
2018-03-23T03:06:30.578Z,62.40
2018-03-23T03:07:30.453Z,39.30
2018-03-23T03:08:30.310Z,56.30
2018-03-23T03:09:30.174Z,34.50
2018-03-23T03:10:30.038Z,31.40
2018-03-23T03:11:29.906Z,33.30
2018-03-23T03:12:29.769Z,27.30
2018-03-23T03:13:29.632Z,26.60
2018-03-23T03:14:29.497Z,30.20
2018-03-23T03:15:29.365Z,26.50
2018-03-23T03:16:29.232Z,28.20
2018-03-23T03:17:29.091Z,25.40
2018-03-23T03:18:28.959Z,25.80
2018-03-23T03:19:28.822Z,24.60
2018-03-23T03:20:28.691Z,24.60
2018-03-23T03:21:28.554Z,26.80
2018-03-23T03:22:28.422Z,24.10
2018-03-23T03:23:28.284Z,24.90
2018-03-23T03:24:28.152Z,24.90
2018-03-23T03:25:28.018Z,26.60
2018-03-23T03:26:27.880Z,25.50
2018-03-23T03:27:27.743Z,25.50
2018-03-23T03:28:27.611Z,24.60
2018-03-23T03:29:27.474Z,24.60
2018-03-23T03:30:27.341Z,24.10
2018-03-23T03:31:27.206Z,25.10
2018-03-23T03:32:27.071Z,24.00
2018-03-23T03:33:26.934Z,23.50
2018-03-23T03:34:26.803Z,23.00
2018-03-23T03:35:26.674Z,24.20
2018-03-23T03:36:26.530Z,22.80
2018-03-23T03:37:26.396Z,20.80
2018-03-23T03:38:26.263Z,20.20
2018-03-23T03:39:26.128Z,21.20
2018-03-23T03:40:25.995Z,19.70
2018-03-23T03:41:25.861Z,22.70
2018-03-23T03:42:25.725Z,21.20
2018-03-23T03:43:25.590Z,20.30
2018-03-23T03:44:25.457Z,21.00
2018-03-23T03:45:25.321Z,20.30
2018-03-23T03:46:25.184Z,23.30
2018-03-23T03:47:25.050Z,22.50
2018-03-23T03:48:24.923Z,23.80
2018-03-23T03:49:24.779Z,27.20
2018-03-23T03:50:24.644Z,29.10
2018-03-23T03:51:24.514Z,27.90
2018-03-23T03:52:24.376Z,31.60
2018-03-23T03:53:24.241Z,31.50
2018-03-23T03:54:24.107Z,32.00
2018-03-23T03:55:23.969Z,31.70
2018-03-23T03:56:23.836Z,33.90
2018-03-23T03:57:23.702Z,27.40
2018-03-23T03:58:23.566Z,27.10
2018-03-23T03:59:23.432Z,27.30
2018-03-23T04:00:23.297Z,29.30
2018-03-23T04:01:23.164Z,27.20
2018-03-23T04:02:23.028Z,34.90
2018-03-23T04:03:22.899Z,28.50
2018-03-23T04:04:22.771Z,29.60
2018-03-23T04:05:22.623Z,30.20
2018-03-23T04:06:22.490Z,31.10
2018-03-23T04:07:22.353Z,26.50
2018-03-23T04:08:22.219Z,25.80
2018-03-23T04:09:22.087Z,25.90
2018-03-23T04:10:21.950Z,23.90
2018-03-23T04:11:21.815Z,25.90
2018-03-23T04:12:21.682Z,25.70
2018-03-23T04:13:21.544Z,22.50
2018-03-23T04:14:21.411Z,24.50
2018-03-23T04:15:21.276Z,22.40
2018-03-23T04:16:21.141Z,22.00
2018-03-23T04:17:21.008Z,25.40
2018-03-23T04:18:20.873Z,22.10
2018-03-23T04:19:20.736Z,21.50
2018-03-23T04:20:20.603Z,22.60
2018-03-23T04:21:20.465Z,21.10
2018-03-23T04:22:20.336Z,23.10
2018-03-23T04:23:20.200Z,21.30
2018-03-23T04:24:20.065Z,19.90
2018-03-23T04:25:19.930Z,19.00
2018-03-23T04:26:19.800Z,21.60
2018-03-23T04:27:19.661Z,22.00
2018-03-23T04:28:19.542Z,22.60
2018-03-23T04:29:19.391Z,20.60
2018-03-23T04:30:19.258Z,20.90
2018-03-23T04:31:19.126Z,22.00
2018-03-23T04:32:18.988Z,22.00
2018-03-23T04:33:18.853Z,20.80
2018-03-23T04:34:18.723Z,19.80
2018-03-23T04:35:18.584Z,20.90
2018-03-23T04:36:18.450Z,19.50
2018-03-23T04:37:18.317Z,19.80
2018-03-23T04:38:18.183Z,20.30
2018-03-23T04:39:18.045Z,19.00
2018-03-23T04:40:17.928Z,19.10
2018-03-23T04:41:17.776Z,24.70
2018-03-23T04:42:17.642Z,25.70
2018-03-23T04:43:17.508Z,27.00
2018-03-23T04:44:17.375Z,26.90
2018-03-23T04:45:17.237Z,25.50
2018-03-23T04:46:17.101Z,26.30
2018-03-23T04:47:16.968Z,24.80
2018-03-23T04:48:16.835Z,26.30
2018-03-23T04:49:16.700Z,29.10
2018-03-23T04:50:16.567Z,38.40
2018-03-23T04:51:16.430Z,35.80
2018-03-23T04:52:16.296Z,27.70
2018-03-23T04:53:16.161Z,22.90
2018-03-23T04:54:16.027Z,23.60
2018-03-23T04:55:15.890Z,23.00
2018-03-23T04:56:15.756Z,22.80
2018-03-23T04:57:15.621Z,22.90
2018-03-23T04:58:15.498Z,23.70
2018-03-23T04:59:15.412Z,24.80
2018-03-23T05:00:15.220Z,22.00
2018-03-23T05:01:15.092Z,25.10
2018-03-23T05:02:14.948Z,24.00
2018-03-23T05:03:14.810Z,24.40
2018-03-23T05:04:14.681Z,26.50
2018-03-23T05:05:14.547Z,25.70
2018-03-23T05:06:14.410Z,25.60
2018-03-23T05:07:14.275Z,26.60
2018-03-23T05:08:14.138Z,23.40
2018-03-23T05:09:14.011Z,25.20
2018-03-23T05:10:13.868Z,22.20
2018-03-23T05:11:13.735Z,22.60
2018-03-23T05:12:13.598Z,19.20
2018-03-23T05:13:13.465Z,18.40
2018-03-23T05:14:13.333Z,20.90
2018-03-23T05:15:13.198Z,17.70
2018-03-23T05:16:13.140Z,18.90
2018-03-23T05:17:12.927Z,18.80
2018-03-23T05:18:12.791Z,19.00
2018-03-23T05:19:12.662Z,18.10
2018-03-23T05:20:12.531Z,20.00
2018-03-23T05:21:12.391Z,19.90
2018-03-23T05:22:12.253Z,19.80
2018-03-23T05:23:12.118Z,19.40
2018-03-23T05:24:11.985Z,18.10
2018-03-23T05:25:11.852Z,18.70
2018-03-23T05:26:11.719Z,18.50
2018-03-23T05:27:11.583Z,18.70
2018-03-23T05:28:11.452Z,17.20
2018-03-23T05:29:11.315Z,19.00
2018-03-23T05:30:11.183Z,18.00
2018-03-23T05:31:11.068Z,18.70
2018-03-23T05:32:10.928Z,17.90
2018-03-23T05:33:10.777Z,18.70
2018-03-23T05:34:10.643Z,19.30
2018-03-23T05:35:10.509Z,19.50
2018-03-23T05:36:10.376Z,20.40
2018-03-23T05:37:10.241Z,19.20
2018-03-23T05:38:10.109Z,18.80
2018-03-23T05:39:09.975Z,18.00
2018-03-23T05:40:09.839Z,20.50
2018-03-23T05:41:09.703Z,19.10
2018-03-23T05:42:09.570Z,18.80
2018-03-23T05:43:09.436Z,19.20
2018-03-23T05:44:09.302Z,17.70
2018-03-23T05:45:09.168Z,18.40
2018-03-23T05:46:09.060Z,19.40
2018-03-23T05:47:08.904Z,19.30
2018-03-23T05:48:08.765Z,18.80
2018-03-23T05:49:08.631Z,19.30
2018-03-23T05:50:08.507Z,20.20
2018-03-23T05:51:08.362Z,18.80
2018-03-23T05:52:08.231Z,16.50
2018-03-23T05:53:08.096Z,16.90
2018-03-23T05:54:07.959Z,17.90
2018-03-23T05:55:07.832Z,18.80
2018-03-23T05:56:07.693Z,18.40
2018-03-23T05:57:07.556Z,16.60
2018-03-23T05:58:07.422Z,17.20
2018-03-23T05:59:07.288Z,18.20
2018-03-23T06:00:07.152Z,18.60
2018-03-23T06:01:07.020Z,17.30
2018-03-23T06:02:06.885Z,18.70
2018-03-23T06:03:06.752Z,17.80
2018-03-23T06:04:06.617Z,18.50
2018-03-23T06:05:06.483Z,16.60
2018-03-23T06:06:06.349Z,17.20
2018-03-23T06:07:06.214Z,17.80
2018-03-23T06:08:06.083Z,16.60
2018-03-23T06:09:05.947Z,13.30
2018-03-23T06:10:05.812Z,11.00
2018-03-23T06:11:05.679Z,13.30
2018-03-23T06:12:05.543Z,12.70
2018-03-23T06:13:05.410Z,13.90
2018-03-23T06:14:05.275Z,14.10
2018-03-23T06:15:05.139Z,17.10
2018-03-23T06:16:05.008Z,18.40
2018-03-23T06:17:04.873Z,18.60
2018-03-23T06:18:04.739Z,18.60
2018-03-23T06:19:04.606Z,17.80
2018-03-23T06:20:04.474Z,17.50
2018-03-23T06:21:04.337Z,18.00
2018-03-23T06:22:04.203Z,17.50
2018-03-23T06:23:04.069Z,17.00
2018-03-23T06:24:03.936Z,16.50
2018-03-23T06:25:03.802Z,19.20
2018-03-23T06:26:03.667Z,19.60
2018-03-23T06:27:03.545Z,22.10
2018-03-23T06:28:03.452Z,23.00
2018-03-23T06:29:03.265Z,22.90
2018-03-23T06:30:03.130Z,20.00
2018-03-23T06:31:02.997Z,20.50
2018-03-23T06:32:02.867Z,20.20
2018-03-23T06:33:02.737Z,18.80
2018-03-23T06:34:02.594Z,19.30
2018-03-23T06:35:02.463Z,20.40
2018-03-23T06:36:02.335Z,20.10
2018-03-23T06:37:02.198Z,19.60
2018-03-23T06:38:02.064Z,19.20
2018-03-23T06:39:01.943Z,19.90
2018-03-23T06:40:01.802Z,20.80
2018-03-23T06:41:01.659Z,21.50
2018-03-23T06:42:01.524Z,22.40
2018-03-23T06:43:01.390Z,20.50
2018-03-23T06:44:01.257Z,20.40
2018-03-23T06:45:01.123Z,20.80
2018-03-23T06:46:00.988Z,22.00
2018-03-23T06:47:00.852Z,22.80
2018-03-23T06:48:00.724Z,21.10
2018-03-23T06:49:00.585Z,19.30
2018-03-23T06:50:00.449Z,18.40
2018-03-23T06:51:00.316Z,19.00
2018-03-23T06:52:00.186Z,17.30
2018-03-23T06:53:00.050Z,19.40
2018-03-23T06:53:59.913Z,18.00
2018-03-23T06:54:59.780Z,15.30
2018-03-23T06:55:59.648Z,15.10
2018-03-23T06:56:59.512Z,16.90
2018-03-23T06:57:59.381Z,16.90
2018-03-23T06:58:59.246Z,17.70
2018-03-23T06:59:59.111Z,18.60
2018-03-23T07:00:58.977Z,20.70
2018-03-23T07:01:58.847Z,21.80
2018-03-23T07:02:58.710Z,25.40
2018-03-23T07:03:58.582Z,28.60
2018-03-23T07:04:58.441Z,26.30
2018-03-23T07:05:58.309Z,23.80
2018-03-23T07:06:58.174Z,21.30
2018-03-23T07:07:58.041Z,19.90
2018-03-23T07:08:57.912Z,19.70
2018-03-23T07:09:57.771Z,19.20
2018-03-23T07:10:57.645Z,19.00
2018-03-23T07:11:57.510Z,20.70
2018-03-23T07:12:57.371Z,19.40
2018-03-23T07:13:57.236Z,19.50
2018-03-23T07:14:57.104Z,19.60
2018-03-23T07:15:56.974Z,21.10
2018-03-23T07:16:56.840Z,19.00
2018-03-23T07:17:56.703Z,17.20
2018-03-23T07:18:56.565Z,18.00
2018-03-23T07:19:56.433Z,18.10
2018-03-23T07:20:56.300Z,18.80
2018-03-23T07:21:56.199Z,19.60
2018-03-23T07:22:56.037Z,18.00
2018-03-23T07:23:55.900Z,18.80
2018-03-23T07:24:55.770Z,17.50
2018-03-23T07:25:55.632Z,20.10
2018-03-23T07:26:55.499Z,19.10
2018-03-23T07:27:55.364Z,17.90
2018-03-23T07:28:55.229Z,18.70
2018-03-23T07:29:55.097Z,18.00
2018-03-23T07:30:54.962Z,17.60
2018-03-23T07:31:54.830Z,16.60
2018-03-23T07:32:54.721Z,18.10
2018-03-23T07:33:54.564Z,16.90
2018-03-23T07:34:54.427Z,17.00
2018-03-23T07:35:54.297Z,16.40
2018-03-23T07:36:54.162Z,18.00
2018-03-23T07:37:54.028Z,17.60
2018-03-23T07:38:53.899Z,14.90
2018-03-23T07:39:53.765Z,15.70
2018-03-23T07:40:53.637Z,15.50
2018-03-23T07:41:53.496Z,19.10
2018-03-23T07:42:53.366Z,20.10
2018-03-23T07:43:53.232Z,19.10
2018-03-23T07:44:53.096Z,19.30
2018-03-23T07:45:52.963Z,19.50
2018-03-23T07:46:52.834Z,18.40
2018-03-23T07:47:52.701Z,37.90
2018-03-23T07:48:52.566Z,25.80
2018-03-23T07:49:52.433Z,25.10
2018-03-23T07:50:52.302Z,20.50
2018-03-23T07:51:52.222Z,20.50
2018-03-23T07:52:52.032Z,20.30
2018-03-23T07:53:51.898Z,23.20
2018-03-23T07:54:51.766Z,30.70
2018-03-23T07:55:51.634Z,23.70
2018-03-23T07:56:51.500Z,20.70
2018-03-23T07:57:51.372Z,30.10
2018-03-23T07:58:51.232Z,52.50
2018-03-23T07:59:51.103Z,23.90
2018-03-23T08:00:50.963Z,25.30
2018-03-23T08:01:50.832Z,21.60
2018-03-23T08:02:50.703Z,23.20
2018-03-23T08:03:50.566Z,23.60
2018-03-23T08:04:50.430Z,24.20
2018-03-23T08:05:50.300Z,21.10
2018-03-23T08:06:50.207Z,25.90
2018-03-23T08:07:50.034Z,20.10
2018-03-23T08:08:49.898Z,20.70
2018-03-23T08:09:49.784Z,19.00
2018-03-23T08:10:49.632Z,18.50
2018-03-23T08:11:49.498Z,20.30
2018-03-23T08:12:49.365Z,19.10
2018-03-23T08:13:49.230Z,19.50
2018-03-23T08:14:49.095Z,18.80
2018-03-23T08:15:48.964Z,18.40
2018-03-23T08:16:48.832Z,17.00
2018-03-23T08:17:48.698Z,18.50
2018-03-23T08:18:48.562Z,18.00
2018-03-23T08:19:48.431Z,19.80
2018-03-23T08:20:48.299Z,18.70
2018-03-23T08:21:48.163Z,17.60
2018-03-23T08:22:48.031Z,19.00
2018-03-23T08:23:47.897Z,18.60
2018-03-23T08:24:47.767Z,18.30
2018-03-23T08:25:47.630Z,26.40
2018-03-23T08:26:47.501Z,19.40
2018-03-23T08:27:47.370Z,23.90
2018-03-23T08:28:47.238Z,18.70
2018-03-23T08:29:47.099Z,20.60
2018-03-23T08:30:46.966Z,17.70
2018-03-23T08:31:46.833Z,17.20
2018-03-23T08:32:46.698Z,16.70
2018-03-23T08:33:46.565Z,16.90
2018-03-23T08:34:46.437Z,16.10
2018-03-23T08:35:46.308Z,18.30
2018-03-23T08:36:46.167Z,15.90
2018-03-23T08:37:46.043Z,16.10
2018-03-23T08:38:45.898Z,16.10
2018-03-23T08:39:45.768Z,13.80
2018-03-23T08:40:45.637Z,14.50
2018-03-23T08:41:45.556Z,13.90
2018-03-23T08:42:45.372Z,14.80
2018-03-23T08:43:45.237Z,13.30
2018-03-23T08:44:45.232Z,13.80
2018-03-23T08:45:44.978Z,14.40
2018-03-23T08:46:44.837Z,13.60
2018-03-23T08:47:44.708Z,13.20
2018-03-23T08:48:44.572Z,12.90
2018-03-23T08:49:44.440Z,13.50
2018-03-23T08:50:44.309Z,14.80
2018-03-23T08:51:44.173Z,12.60
2018-03-23T08:52:44.083Z,11.50
2018-03-23T08:53:43.912Z,11.30
2018-03-23T08:54:43.780Z,10.10
2018-03-23T08:55:43.649Z,9.70
2018-03-23T08:56:43.515Z,10.40
2018-03-23T08:57:43.382Z,8.30
2018-03-23T08:58:43.260Z,9.30
2018-03-23T08:59:43.120Z,11.20
2018-03-23T09:00:42.988Z,9.80
2018-03-23T09:01:42.859Z,9.70
2018-03-23T09:02:42.724Z,8.90
2018-03-23T09:03:42.594Z,8.60
2018-03-23T09:04:42.477Z,9.30
2018-03-23T09:05:42.331Z,9.30
2018-03-23T09:06:42.200Z,10.20
2018-03-23T09:07:42.071Z,8.80
2018-03-23T09:08:41.937Z,9.30
2018-03-23T09:09:41.836Z,8.60
2018-03-23T09:10:41.679Z,8.70
2018-03-23T09:11:41.546Z,8.60
2018-03-23T09:12:41.416Z,8.50
2018-03-23T09:13:41.288Z,8.80
2018-03-23T09:14:41.156Z,8.90
2018-03-23T09:15:41.025Z,8.70
2018-03-23T09:16:40.922Z,8.40
2018-03-23T09:17:40.767Z,9.70
2018-03-23T09:18:40.635Z,9.60
2018-03-23T09:19:40.510Z,9.10
2018-03-23T09:20:40.374Z,10.00
2018-03-23T09:21:40.252Z,10.30
2018-03-23T09:22:40.118Z,8.80
2018-03-23T09:23:39.988Z,8.60
2018-03-23T09:24:39.858Z,8.50
2018-03-23T09:25:39.725Z,7.80
2018-03-23T09:26:39.605Z,7.70
2018-03-23T09:27:39.469Z,8.40
2018-03-23T09:28:39.340Z,9.90
2018-03-23T09:29:39.215Z,9.00
2018-03-23T09:30:39.078Z,9.20
2018-03-23T09:31:38.950Z,8.50
2018-03-23T09:32:38.820Z,8.30
2018-03-23T09:33:38.688Z,10.00
2018-03-23T09:34:38.557Z,8.80
2018-03-23T09:35:38.429Z,8.60
2018-03-23T09:36:38.298Z,8.80
2018-03-23T09:37:38.170Z,8.30
2018-03-23T09:38:38.038Z,7.70
2018-03-23T09:39:37.907Z,7.40
2018-03-23T09:40:37.779Z,8.60
2018-03-23T09:41:37.648Z,8.80
2018-03-23T09:42:37.522Z,10.00
2018-03-23T09:43:37.387Z,8.40
2018-03-23T09:44:37.292Z,8.80
2018-03-23T09:45:37.128Z,8.40
2018-03-23T09:46:36.998Z,8.60
2018-03-23T09:47:36.868Z,7.30
2018-03-23T09:48:36.795Z,7.10
2018-03-23T09:49:36.607Z,8.40
2018-03-23T09:50:36.481Z,9.20
2018-03-23T09:51:36.347Z,8.80
2018-03-23T09:52:36.273Z,8.10
2018-03-23T09:53:36.089Z,8.30
2018-03-23T09:54:35.964Z,7.20
2018-03-23T09:55:35.833Z,8.10
2018-03-23T09:56:35.705Z,8.70
2018-03-23T09:57:35.571Z,8.40
2018-03-23T09:58:35.442Z,8.60
2018-03-23T09:59:35.309Z,6.90
2018-03-23T10:00:35.178Z,7.30
2018-03-23T10:01:35.051Z,7.10
2018-03-23T10:02:34.953Z,7.00
2018-03-23T10:03:34.790Z,7.80
2018-03-23T10:04:34.658Z,7.50
2018-03-23T10:05:34.529Z,7.90
2018-03-23T10:06:34.399Z,7.20
2018-03-23T10:07:34.274Z,7.20
2018-03-23T10:08:34.136Z,7.10
2018-03-23T10:09:34.007Z,7.00
2018-03-23T10:10:33.878Z,7.00
2018-03-23T10:11:33.746Z,7.40
2018-03-23T10:12:33.615Z,7.20
2018-03-23T10:13:33.484Z,7.70
2018-03-23T10:14:33.355Z,7.30
2018-03-23T10:15:33.226Z,7.60
2018-03-23T10:16:33.097Z,7.40
2018-03-23T10:17:32.964Z,7.60
2018-03-23T10:18:32.833Z,7.10
2018-03-23T10:19:32.703Z,7.00
2018-03-23T10:20:32.583Z,7.10
2018-03-23T10:21:32.441Z,7.80
2018-03-23T10:22:32.311Z,8.50
2018-03-23T10:23:32.189Z,8.40
2018-03-23T10:24:32.050Z,8.40
2018-03-23T10:25:31.919Z,8.00
2018-03-23T10:26:31.794Z,7.90
2018-03-23T10:27:31.658Z,8.80
2018-03-23T10:28:31.525Z,8.20
2018-03-23T10:29:31.398Z,7.80
2018-03-23T10:30:31.266Z,8.10
2018-03-23T10:31:31.142Z,6.40
2018-03-23T10:32:31.003Z,6.40
2018-03-23T10:33:30.886Z,6.10
2018-03-23T10:34:30.746Z,5.60
2018-03-23T10:35:30.659Z,5.60
2018-03-23T10:36:30.482Z,4.60
2018-03-23T10:37:30.354Z,5.30
2018-03-23T10:38:30.228Z,5.80
2018-03-23T10:39:30.094Z,6.00
2018-03-23T10:40:29.962Z,5.80
2018-03-23T10:41:29.837Z,5.20
2018-03-23T10:42:29.704Z,4.70
2018-03-23T10:43:29.572Z,5.00
2018-03-23T10:44:29.442Z,5.10
2018-03-23T10:45:29.310Z,5.70
2018-03-23T10:46:29.182Z,6.30
2018-03-23T10:47:29.054Z,6.00
2018-03-23T10:48:28.927Z,6.00
2018-03-23T10:49:28.792Z,5.90
2018-03-23T10:50:28.663Z,6.60
2018-03-23T10:51:28.532Z,5.90
2018-03-23T10:52:28.404Z,6.30
2018-03-23T10:53:28.332Z,6.50
2018-03-23T10:54:28.142Z,5.50
2018-03-23T10:55:28.013Z,5.90
2018-03-23T10:56:27.884Z,5.20
2018-03-23T10:57:27.764Z,5.60
2018-03-23T10:58:27.627Z,5.80
2018-03-23T10:59:27.497Z,5.60
2018-03-23T11:00:27.373Z,5.00
2018-03-23T11:01:27.240Z,4.40
2018-03-23T11:02:27.106Z,5.70
2018-03-23T11:03:26.990Z,5.30
2018-03-23T11:04:26.848Z,5.70
2018-03-23T11:05:26.720Z,5.00
2018-03-23T11:06:26.591Z,4.90
2018-03-23T11:07:26.460Z,4.60
2018-03-23T11:08:26.332Z,4.80
2018-03-23T11:09:26.202Z,4.70
2018-03-23T11:10:26.074Z,4.20
2018-03-23T11:11:25.950Z,4.30
2018-03-23T11:12:25.817Z,4.60
2018-03-23T11:13:25.689Z,5.30
2018-03-23T11:14:25.557Z,5.70
2018-03-23T11:15:25.428Z,5.60
2018-03-23T11:16:25.294Z,5.20
2018-03-23T11:17:25.167Z,4.60
2018-03-23T11:18:25.048Z,4.80
2018-03-23T11:19:24.906Z,5.10
2018-03-23T11:20:24.778Z,5.50
2018-03-23T11:21:24.652Z,4.30
2018-03-23T11:22:24.528Z,4.90
2018-03-23T11:23:24.390Z,5.20
2018-03-23T11:24:24.300Z,4.80
2018-03-23T11:25:24.130Z,5.00
2018-03-23T11:26:24.005Z,5.50
2018-03-23T11:27:23.873Z,4.80
2018-03-23T11:28:23.746Z,6.00
2018-03-23T11:29:23.615Z,6.00
2018-03-23T11:30:23.486Z,6.10
2018-03-23T11:31:23.358Z,5.90
2018-03-23T11:32:23.229Z,6.20
2018-03-23T11:33:23.100Z,6.60
2018-03-23T11:34:22.969Z,6.90
2018-03-23T11:35:22.842Z,6.20
2018-03-23T11:36:22.712Z,5.50
2018-03-23T11:37:22.584Z,5.80
2018-03-23T11:38:22.454Z,6.50
2018-03-23T11:39:22.326Z,5.70
2018-03-23T11:40:22.196Z,6.00
2018-03-23T11:41:22.070Z,5.30
2018-03-23T11:42:21.940Z,6.40
2018-03-23T11:43:21.814Z,6.20
2018-03-23T11:44:21.725Z,5.90
2018-03-23T11:45:21.557Z,6.10
2018-03-23T11:46:21.453Z,6.20
2018-03-23T11:47:21.302Z,6.40
2018-03-23T11:48:21.168Z,5.70
2018-03-23T11:49:21.041Z,5.90
2018-03-23T11:50:20.914Z,6.30
2018-03-23T11:51:20.786Z,6.10
2018-03-23T11:52:20.660Z,5.40
2018-03-23T11:53:20.530Z,6.30
2018-03-23T11:54:20.402Z,6.50
2018-03-23T11:55:20.273Z,6.20
2018-03-23T11:56:20.146Z,6.30
2018-03-23T11:57:20.180Z,5.70
2018-03-23T11:58:19.891Z,6.20
2018-03-23T11:59:19.759Z,6.60
2018-03-23T12:00:19.632Z,7.00
2018-03-23T12:01:19.505Z,5.90
2018-03-23T12:02:19.378Z,5.30
2018-03-23T12:03:19.248Z,5.30
2018-03-23T12:04:19.120Z,5.50
2018-03-23T12:05:18.990Z,4.40
2018-03-23T12:06:18.864Z,5.00
2018-03-23T12:07:18.736Z,5.00
2018-03-23T12:08:18.610Z,4.90
2018-03-23T12:09:18.480Z,5.30
2018-03-23T12:10:18.353Z,5.00
2018-03-23T12:11:18.226Z,4.80
2018-03-23T12:12:18.100Z,5.00
2018-03-23T12:13:17.975Z,4.50
2018-03-23T12:14:17.914Z,4.70
2018-03-23T12:15:17.720Z,3.70
2018-03-23T12:16:17.589Z,3.70
2018-03-23T12:17:17.464Z,3.30
2018-03-23T12:18:17.335Z,3.70
2018-03-23T12:19:17.210Z,4.20
2018-03-23T12:20:17.083Z,4.30
2018-03-23T12:21:16.961Z,4.10
2018-03-23T12:22:16.828Z,3.60
2018-03-23T12:23:16.701Z,4.70
2018-03-23T12:24:16.577Z,4.10
2018-03-23T12:25:16.448Z,3.10
2018-03-23T12:26:16.320Z,4.00
2018-03-23T12:27:16.195Z,3.20
2018-03-23T12:28:16.066Z,3.40
2018-03-23T12:29:15.937Z,3.10
2018-03-23T12:30:15.813Z,2.70
2018-03-23T12:31:15.685Z,3.00
2018-03-23T12:32:15.556Z,2.70
2018-03-23T12:33:15.429Z,4.10
2018-03-23T12:34:15.305Z,3.50
2018-03-23T12:35:15.181Z,2.80
2018-03-23T12:36:15.043Z,4.10
2018-03-23T12:37:14.920Z,6.00
2018-03-23T12:38:14.795Z,5.20
2018-03-23T12:39:14.666Z,3.10
2018-03-23T12:40:14.538Z,2.60
2018-03-23T12:41:14.409Z,2.60
2018-03-23T12:42:14.280Z,3.50
2018-03-23T12:43:14.152Z,2.90
2018-03-23T12:44:14.022Z,3.00
2018-03-23T12:45:13.898Z,2.90
2018-03-23T12:46:13.770Z,3.00
2018-03-23T12:47:13.641Z,2.90
2018-03-23T12:48:13.515Z,3.20
2018-03-23T12:49:13.387Z,3.20
2018-03-23T12:50:13.264Z,3.40
2018-03-23T12:51:13.139Z,3.80
2018-03-23T12:52:13.002Z,4.10
2018-03-23T12:53:12.876Z,4.30
2018-03-23T12:54:12.746Z,3.90
2018-03-23T12:55:12.622Z,4.10
2018-03-23T12:56:12.528Z,4.10
2018-03-23T12:57:12.367Z,3.80
2018-03-23T12:58:12.241Z,3.90
2018-03-23T12:59:12.115Z,4.00